Time;durP1;ratioP1;P1;durP2;ratioP2;P2;SDS_P1;SDS_P2;PMS_P1;PMS_P2;Temp;Humidity;BMP_temperature;BMP_pressure;BME280_temperature;BME280_humidity;BME280_pressure;Samples;Min_cycle;Max_cycle;Signal;HPM_P1;HPM_P2
2023/07/15 00:01:31;;;;;;;2.45;2.25;;;;;;;;;;5051992;28;20904;-85
2023/07/15 00:03:57;;;;;;;3.10;2.10;;;;;;;;;;5069511;28;20466;-85
2023/07/15 00:06:24;;;;;;;2.05;1.95;;;;;;;;;;5071544;28;20386;-84
2023/07/15 00:08:51;;;;;;;2.80;2.10;;;;;;;;;;5050355;28;20395;-85
2023/07/15 00:11:32;;;;;;;2.55;2.30;;;;;;;;;;5050612;28;20385;-84
2023/07/15 00:13:58;;;;;;;3.70;2.00;;;;;;;;;;5061533;28;20393;-84
2023/07/15 00:16:25;;;;;;;2.80;2.10;;;;;;;;;;5051758;28;20384;-84
2023/07/15 00:18:51;;;;;;;3.08;2.33;;;;;;;;;;5052081;28;20416;-84
2023/07/15 00:21:20;;;;;;;2.50;2.30;;;;;;;;;;5045732;28;20494;-84
2023/07/15 00:23:46;;;;;;;2.20;2.00;;;;;;;;;;5052159;28;20399;-84
2023/07/15 00:26:12;;;;;;;2.80;2.13;;;;;;;;;;5054787;28;20384;-84
2023/07/15 00:28:38;;;;;;;4.47;2.00;;;;;;;;;;5052006;28;20431;-84
2023/07/15 00:31:17;;;;;;;2.05;1.92;;;;;;;;;;5052032;28;20389;-84
2023/07/15 00:33:43;;;;;;;2.10;1.90;;;;;;;;;;5054412;28;20382;-84
2023/07/15 00:36:09;;;;;;;2.28;2.08;;;;;;;;;;5051725;28;20491;-84
2023/07/15 00:38:35;;;;;;;2.97;2.17;;;;;;;;;;5051902;28;20374;-84
2023/07/15 00:41:02;;;;;;;2.60;2.10;;;;;;;;;;5052071;28;20377;-85
2023/07/15 00:43:46;;;;;;;2.83;2.40;;;;;;;;;;5052054;28;20751;-85
2023/07/15 00:46:18;;;;;;;2.37;2.17;;;;;;;;;;5051951;28;20376;-85
2023/07/15 00:49:04;;;;;;;2.60;2.10;;;;;;;;;;5051922;28;20381;-84
2023/07/15 00:51:32;;;;;;;3.00;1.95;;;;;;;;;;5011367;28;20404;-85
2023/07/15 00:53:59;;;;;;;2.30;2.10;;;;;;;;;;5051664;28;20455;-84
2023/07/15 00:56:25;;;;;;;2.67;2.07;;;;;;;;;;5051828;28;20382;-85
2023/07/15 00:58:52;;;;;;;2.75;1.95;;;;;;;;;;5046866;28;20403;-84
2023/07/15 01:01:18;;;;;;;1.97;1.83;;;;;;;;;;5051920;28;20389;-84
2023/07/15 01:03:45;;;;;;;2.63;2.42;;;;;;;;;;5051680;28;20973;-85
2023/07/15 01:06:11;;;;;;;2.30;2.10;;;;;;;;;;5055600;28;20389;-85
2023/07/15 01:08:37;;;;;;;2.40;1.90;;;;;;;;;;5055557;28;20813;-85
2023/07/15 01:11:06;;;;;;;2.45;2.25;;;;;;;;;;5055146;28;20405;-84
2023/07/15 01:13:32;;;;;;;2.60;2.30;;;;;;;;;;5055675;28;20495;-84
2023/07/15 01:15:58;;;;;;;2.40;2.20;;;;;;;;;;5054082;28;20401;-84
2023/07/15 01:18:24;;;;;;;2.38;2.17;;;;;;;;;;5055481;28;20473;-84
2023/07/15 01:20:50;;;;;;;2.28;2.08;;;;;;;;;;5055455;28;20754;-84
2023/07/15 01:23:17;;;;;;;3.88;2.30;;;;;;;;;;5064615;28;20381;-84
2023/07/15 01:25:43;;;;;;;2.30;2.10;;;;;;;;;;5055590;28;20386;-84
2023/07/15 01:28:09;;;;;;;2.53;2.10;;;;;;;;;;5055357;28;20943;-84
2023/07/15 01:30:35;;;;;;;2.40;2.10;;;;;;;;;;5055262;28;20385;-84
2023/07/15 01:33:01;;;;;;;2.53;1.92;;;;;;;;;;5055391;28;20393;-84
2023/07/15 01:35:27;;;;;;;2.50;2.30;;;;;;;;;;5055343;28;20435;-84
2023/07/15 01:37:53;;;;;;;2.60;2.40;;;;;;;;;;5055146;28;20862;-84
2023/07/15 01:40:19;;;;;;;2.30;2.10;;;;;;;;;;5055087;28;20393;-84
2023/07/15 01:42:45;;;;;;;2.50;2.25;;;;;;;;;;5055352;28;20382;-85
2023/07/15 01:45:11;;;;;;;2.45;2.10;;;;;;;;;;5044037;28;20918;-85
2023/07/15 01:47:37;;;;;;;2.50;2.00;;;;;;;;;;5049532;28;20454;-84
2023/07/15 01:50:06;;;;;;;2.67;2.47;;;;;;;;;;5050236;28;20448;-85
2023/07/15 01:52:32;;;;;;;2.53;2.33;;;;;;;;;;5054061;28;20374;-84
2023/07/15 01:54:58;;;;;;;3.17;2.07;;;;;;;;;;5051761;28;20409;-85
2023/07/15 01:57:28;;;;;;;2.63;2.07;;;;;;;;;;5053490;28;20381;-84
2023/07/15 01:59:57;;;;;;;2.58;2.15;;;;;;;;;;5054721;28;20389;-84
2023/07/15 02:02:26;;;;;;;2.20;2.00;;;;;;;;;;5045340;28;20378;-84
2023/07/15 02:04:52;;;;;;;2.10;2.00;;;;;;;;;;5054427;28;20456;-84
2023/07/15 02:07:18;;;;;;;2.23;2.03;;;;;;;;;;5054387;28;20406;-85
2023/07/15 02:09:44;;;;;;;2.40;2.20;;;;;;;;;;5056214;28;20762;-85
2023/07/15 02:12:10;;;;;;;2.53;2.17;;;;;;;;;;5054514;28;20417;-84
2023/07/15 02:14:36;;;;;;;2.38;2.17;;;;;;;;;;5054164;28;20409;-84
2023/07/15 02:17:03;;;;;;;2.60;2.20;;;;;;;;;;5052009;28;20922;-84
2023/07/15 02:19:32;;;;;;;2.40;2.20;;;;;;;;;;5055430;28;20386;-83
2023/07/15 02:21:59;;;;;;;2.10;2.00;;;;;;;;;;5066073;28;20469;-84
2023/07/15 02:24:25;;;;;;;2.33;2.13;;;;;;;;;;5054470;28;20374;-84
2023/07/15 02:26:51;;;;;;;2.47;2.17;;;;;;;;;;5054349;28;20382;-85
2023/07/15 02:29:17;;;;;;;3.03;2.10;;;;;;;;;;5045044;28;20744;-85
2023/07/15 02:31:44;;;;;;;2.40;2.20;;;;;;;;;;5051235;28;20424;-84
2023/07/15 02:34:10;;;;;;;2.25;2.03;;;;;;;;;;5054181;28;20834;-83
2023/07/15 02:36:36;;;;;;;2.90;2.10;;;;;;;;;;5054077;28;20381;-84
2023/07/15 02:39:04;;;;;;;2.70;2.33;;;;;;;;;;5056816;28;20377;-84
2023/07/15 02:41:32;;;;;;;1.90;1.80;;;;;;;;;;5054485;28;20385;-83
2023/07/15 02:43:58;;;;;;;2.50;2.30;;;;;;;;;;5053890;28;20377;-84
2023/07/15 02:46:24;;;;;;;2.78;2.40;;;;;;;;;;5053827;28;20412;-84
2023/07/15 02:48:50;;;;;;;2.55;2.35;;;;;;;;;;5053963;28;20751;-83
2023/07/15 02:51:16;;;;;;;2.40;2.17;;;;;;;;;;5051766;28;20386;-85
2023/07/15 02:53:44;;;;;;;3.30;2.55;;;;;;;;;;5053659;28;20377;-85
2023/07/15 02:56:10;;;;;;;2.47;2.27;;;;;;;;;;5053963;28;20460;-85
2023/07/15 02:58:36;;;;;;;4.47;2.05;;;;;;;;;;5053856;28;20862;-85
2023/07/15 03:01:02;;;;;;;2.60;2.40;;;;;;;;;;5053475;28;20377;-85
2023/07/15 03:03:28;;;;;;;2.38;2.15;;;;;;;;;;5045787;28;20385;-84
2023/07/15 03:05:54;;;;;;;2.35;2.20;;;;;;;;;;5034327;28;20760;-85
2023/07/15 03:08:21;;;;;;;2.97;2.45;;;;;;;;;;5033623;28;20423;-85
2023/07/15 03:10:49;;;;;;;3.15;2.30;;;;;;;;;;5049675;28;20400;-85
2023/07/15 03:13:15;;;;;;;3.60;2.53;;;;;;;;;;5053565;28;20793;-84
2023/07/15 03:15:42;;;;;;;2.63;2.42;;;;;;;;;;5049488;28;20410;-85
2023/07/15 03:18:08;;;;;;;2.70;2.17;;;;;;;;;;5053084;28;21110;-85
2023/07/15 03:20:35;;;;;;;3.67;2.38;;;;;;;;;;5053630;28;20401;-85
2023/07/15 03:23:01;;;;;;;2.58;2.38;;;;;;;;;;5058630;28;20387;-85
2023/07/15 03:25:27;;;;;;;2.70;2.50;;;;;;;;;;5045079;28;20493;-85
2023/07/15 03:27:53;;;;;;;2.30;2.10;;;;;;;;;;5046075;28;20386;-84
2023/07/15 03:30:19;;;;;;;2.47;2.28;;;;;;;;;;5053060;28;20385;-85
2023/07/15 03:32:46;;;;;;;2.40;2.20;;;;;;;;;;5053163;28;20389;-84
2023/07/15 03:35:12;;;;;;;2.45;2.25;;;;;;;;;;5053092;28;20405;-84
2023/07/15 03:37:39;;;;;;;3.27;2.40;;;;;;;;;;5053160;28;20386;-84
2023/07/15 03:40:08;;;;;;;2.63;2.30;;;;;;;;;;5037711;28;20391;-85
2023/07/15 03:42:35;;;;;;;2.55;2.35;;;;;;;;;;5043929;28;20410;-84
2023/07/15 03:45:01;;;;;;;3.75;2.40;;;;;;;;;;5046968;28;20468;-85
2023/07/15 03:47:27;;;;;;;3.13;2.30;;;;;;;;;;5052887;28;20858;-85
2023/07/15 03:49:53;;;;;;;2.75;2.55;;;;;;;;;;5052819;28;20392;-84
2023/07/15 03:52:19;;;;;;;2.65;2.45;;;;;;;;;;5044817;28;20398;-84
2023/07/15 03:54:45;;;;;;;2.40;2.20;;;;;;;;;;5042791;28;20416;-84
2023/07/15 03:57:11;;;;;;;3.42;2.50;;;;;;;;;;5052454;28;20370;-85
2023/07/15 03:59:38;;;;;;;3.17;2.38;;;;;;;;;;5052450;28;20381;-85
2023/07/15 04:02:04;;;;;;;2.60;2.40;;;;;;;;;;5051492;28;20460;-85
2023/07/15 04:04:30;;;;;;;2.53;2.33;;;;;;;;;;5050877;28;20417;-85
2023/07/15 04:06:58;;;;;;;3.30;2.50;;;;;;;;;;5054444;28;20462;-85
2023/07/15 04:09:25;;;;;;;2.40;2.20;;;;;;;;;;5072443;28;20384;-85
2023/07/15 04:11:51;;;;;;;2.50;2.30;;;;;;;;;;5072775;28;20391;-84
2023/07/15 04:14:17;;;;;;;2.57;2.37;;;;;;;;;;5054625;28;20889;-84
2023/07/15 04:16:43;;;;;;;2.70;2.50;;;;;;;;;;5074860;28;20411;-85
2023/07/15 04:19:09;;;;;;;2.60;2.30;;;;;;;;;;5076253;28;20449;-85
2023/07/15 04:21:36;;;;;;;2.70;2.50;;;;;;;;;;5075183;28;20395;-84
2023/07/15 04:24:03;;;;;;;2.50;2.30;;;;;;;;;;5072439;28;20459;-84
2023/07/15 04:26:29;;;;;;;2.80;2.55;;;;;;;;;;5072125;28;20379;-84
2023/07/15 04:28:55;;;;;;;2.70;2.50;;;;;;;;;;5072364;28;20983;-84
2023/07/15 04:31:21;;;;;;;3.00;2.60;;;;;;;;;;5070650;28;20792;-85
2023/07/15 04:33:48;;;;;;;2.90;2.60;;;;;;;;;;5086544;28;20387;-86
2023/07/15 04:36:14;;;;;;;2.80;2.60;;;;;;;;;;5072091;28;20403;-85
2023/07/15 04:38:40;;;;;;;2.40;2.22;;;;;;;;;;5072022;28;20384;-84
2023/07/15 04:41:06;;;;;;;2.88;2.67;;;;;;;;;;5076214;28;20386;-85
2023/07/15 04:43:32;;;;;;;4.10;2.60;;;;;;;;;;5076403;28;20437;-85
2023/07/15 04:45:59;;;;;;;2.80;2.60;;;;;;;;;;5076619;28;20763;-84
2023/07/15 04:48:25;;;;;;;2.80;2.60;;;;;;;;;;5076247;28;20876;-83
2023/07/15 04:50:51;;;;;;;3.50;2.28;;;;;;;;;;5074357;28;20945;-85
2023/07/15 04:53:17;;;;;;;2.70;2.50;;;;;;;;;;5058091;28;20778;-85
2023/07/15 04:55:44;;;;;;;2.65;2.45;;;;;;;;;;5075711;28;20404;-85
2023/07/15 04:58:11;;;;;;;3.27;2.40;;;;;;;;;;5075931;28;20385;-85
2023/07/15 05:00:37;;;;;;;2.72;2.40;;;;;;;;;;5075954;28;20375;-85
2023/07/15 05:03:07;;;;;;;2.65;2.45;;;;;;;;;;5075771;28;20402;-85
2023/07/15 05:05:33;;;;;;;2.50;2.30;;;;;;;;;;5075604;28;20913;-85
2023/07/15 05:08:31;;;;;;;2.53;2.33;;;;;;;;;;5062206;28;20413;-83
2023/07/15 05:10:57;;;;;;;2.50;2.30;;;;;;;;;;5022480;28;20392;-85
2023/07/15 05:13:24;;;;;;;2.60;2.40;;;;;;;;;;5055750;28;20385;-85
2023/07/15 05:15:50;;;;;;;2.85;2.30;;;;;;;;;;5055421;28;20739;-85
2023/07/15 05:18:16;;;;;;;3.13;2.17;;;;;;;;;;5055332;28;20898;-86
2023/07/15 05:20:42;;;;;;;2.67;2.47;;;;;;;;;;5056697;28;20376;-83
2023/07/15 05:23:08;;;;;;;2.45;2.25;;;;;;;;;;5055503;28;20480;-83
2023/07/15 05:25:34;;;;;;;3.70;2.70;;;;;;;;;;5055360;28;20484;-83
2023/07/15 05:28:00;;;;;;;2.50;2.30;;;;;;;;;;5055320;28;20902;-82
2023/07/15 05:30:26;;;;;;;2.55;2.35;;;;;;;;;;5055399;28;20420;-83
2023/07/15 05:32:52;;;;;;;2.73;2.53;;;;;;;;;;5058224;28;20476;-84
2023/07/15 05:35:19;;;;;;;2.85;2.38;;;;;;;;;;5056912;28;20419;-84
2023/07/15 05:37:46;;;;;;;2.42;2.22;;;;;;;;;;5055163;28;20373;-84
2023/07/15 05:40:12;;;;;;;3.63;2.45;;;;;;;;;;5054959;28;20374;-85
2023/07/15 05:42:42;;;;;;;2.90;2.45;;;;;;;;;;5055430;28;20408;-85
2023/07/15 05:45:09;;;;;;;2.78;2.15;;;;;;;;;;5054787;28;20381;-85
2023/07/15 05:47:35;;;;;;;2.75;2.30;;;;;;;;;;5053911;28;20381;-85
2023/07/15 05:50:01;;;;;;;2.58;2.38;;;;;;;;;;5054748;28;20385;-85
2023/07/15 05:52:27;;;;;;;2.95;2.30;;;;;;;;;;5054849;28;20468;-85
2023/07/15 05:54:54;;;;;;;3.35;2.00;;;;;;;;;;5054040;28;20405;-85
2023/07/15 05:57:20;;;;;;;3.40;2.30;;;;;;;;;;5054748;28;20384;-85
2023/07/15 05:59:46;;;;;;;2.65;2.22;;;;;;;;;;5044290;28;20379;-85
2023/07/15 06:02:12;;;;;;;2.20;2.00;;;;;;;;;;5041870;28;20375;-86
2023/07/15 06:04:38;;;;;;;2.80;2.33;;;;;;;;;;5053493;28;20744;-85
2023/07/15 06:07:04;;;;;;;3.17;2.53;;;;;;;;;;5054710;28;20422;-85
2023/07/15 06:09:30;;;;;;;2.67;2.45;;;;;;;;;;5055482;28;20381;-88
2023/07/15 06:11:56;;;;;;;2.60;2.40;;;;;;;;;;5053806;28;20389;-84
2023/07/15 06:14:22;;;;;;;3.77;2.70;;;;;;;;;;5054758;28;20426;-85
2023/07/15 06:16:48;;;;;;;3.20;2.90;;;;;;;;;;5054480;28;20374;-85
2023/07/15 06:19:14;;;;;;;2.80;2.60;;;;;;;;;;5058400;28;20374;-87
2023/07/15 06:21:43;;;;;;;3.35;3.05;;;;;;;;;;5056453;28;20914;-86
2023/07/15 06:24:09;;;;;;;3.10;2.90;;;;;;;;;;5054734;28;20397;-86
2023/07/15 06:26:35;;;;;;;3.28;2.97;;;;;;;;;;5045483;28;20391;-86
2023/07/15 06:29:01;;;;;;;3.65;3.35;;;;;;;;;;5054317;28;20382;-87
2023/07/15 06:31:28;;;;;;;3.03;2.83;;;;;;;;;;5038829;28;20470;-86
2023/07/15 06:33:54;;;;;;;3.15;2.85;;;;;;;;;;5054109;28;20388;-86
2023/07/15 06:36:20;;;;;;;3.40;3.10;;;;;;;;;;5054299;28;20401;-86
2023/07/15 06:38:46;;;;;;;4.07;2.80;;;;;;;;;;5056544;28;20369;-86
2023/07/15 06:41:12;;;;;;;3.42;3.22;;;;;;;;;;5054454;28;20377;-86
2023/07/15 06:43:38;;;;;;;3.53;2.90;;;;;;;;;;5047062;28;20390;-86
2023/07/15 06:46:04;;;;;;;3.15;2.60;;;;;;;;;;5053994;28;20940;-86
2023/07/15 06:48:30;;;;;;;3.00;2.80;;;;;;;;;;5053689;28;20386;-85
2023/07/15 06:50:56;;;;;;;2.95;2.65;;;;;;;;;;5053782;28;20393;-85
2023/07/15 06:53:22;;;;;;;3.22;2.92;;;;;;;;;;5053879;28;20404;-84
2023/07/15 06:55:48;;;;;;;2.75;2.55;;;;;;;;;;5053587;28;20401;-84
2023/07/15 06:58:14;;;;;;;2.70;2.50;;;;;;;;;;5053580;28;20477;-84
2023/07/15 07:00:40;;;;;;;3.10;2.90;;;;;;;;;;5053673;28;20378;-82
2023/07/15 07:03:06;;;;;;;3.10;2.67;;;;;;;;;;5052821;28;20439;-82
2023/07/15 07:05:32;;;;;;;2.95;2.60;;;;;;;;;;5053987;28;20431;-83
2023/07/15 07:07:58;;;;;;;3.08;2.70;;;;;;;;;;5045158;28;20981;-83
2023/07/15 07:10:24;;;;;;;2.90;2.70;;;;;;;;;;5046591;28;20389;-85
2023/07/15 07:12:50;;;;;;;4.65;2.88;;;;;;;;;;5053471;28;20453;-86
2023/07/15 07:15:16;;;;;;;2.83;2.55;;;;;;;;;;5053400;28;20441;-83
2023/07/15 07:17:42;;;;;;;3.13;2.70;;;;;;;;;;5053959;28;20413;-85
2023/07/15 07:20:09;;;;;;;2.70;2.50;;;;;;;;;;5053248;28;20409;-83
2023/07/15 07:22:35;;;;;;;3.10;2.65;;;;;;;;;;5052896;28;20390;-84
2023/07/15 07:25:01;;;;;;;3.08;2.78;;;;;;;;;;5052949;28;20393;-85
2023/07/15 07:27:27;;;;;;;3.85;2.60;;;;;;;;;;5050355;28;20869;-84
2023/07/15 07:29:58;;;;;;;2.90;2.70;;;;;;;;;;5053136;28;20419;-82
2023/07/15 07:32:24;;;;;;;2.90;2.60;;;;;;;;;;5053090;28;20381;-83
2023/07/15 07:34:50;;;;;;;2.70;2.50;;;;;;;;;;5052569;28;20401;-84
2023/07/15 07:37:16;;;;;;;2.80;2.60;;;;;;;;;;5052308;28;20447;-79
2023/07/15 07:39:42;;;;;;;3.05;2.60;;;;;;;;;;5052869;28;20866;-80
2023/07/15 07:42:08;;;;;;;2.60;2.40;;;;;;;;;;5052718;28;20381;-81
2023/07/15 07:44:34;;;;;;;3.13;2.85;;;;;;;;;;5052664;28;20377;-81
2023/07/15 07:47:00;;;;;;;4.00;3.70;;;;;;;;;;5052524;28;20452;-81
2023/07/15 07:49:26;;;;;;;2.92;2.63;;;;;;;;;;5052527;28;20940;-82
2023/07/15 07:51:52;;;;;;;3.03;2.60;;;;;;;;;;5051495;28;20389;-81
2023/07/15 07:54:18;;;;;;;3.15;2.47;;;;;;;;;;5052675;28;20392;-81
2023/07/15 07:56:44;;;;;;;4.35;3.00;;;;;;;;;;5052157;28;20427;-83
2023/07/15 07:59:10;;;;;;;3.08;2.80;;;;;;;;;;5052092;28;20866;-86
2023/07/15 08:01:36;;;;;;;2.60;2.40;;;;;;;;;;5047264;28;20398;-86
2023/07/15 08:04:02;;;;;;;2.72;2.53;;;;;;;;;;5049444;28;20404;-86
2023/07/15 08:06:29;;;;;;;3.13;2.63;;;;;;;;;;5052394;28;20922;-86
2023/07/15 08:08:55;;;;;;;2.83;2.40;;;;;;;;;;5052271;28;20377;-86
2023/07/15 08:11:21;;;;;;;2.92;2.53;;;;;;;;;;5052025;28;20397;-83
2023/07/15 08:13:47;;;;;;;2.22;2.13;;;;;;;;;;5051166;28;20866;-85
2023/07/15 08:16:45;;;;;;;4.72;2.35;;;;;;;;;;5051859;28;20405;-85
2023/07/15 08:19:11;;;;;;;2.20;2.10;;;;;;;;;;5019223;28;20870;-85
2023/07/15 08:21:38;;;;;;;2.85;2.60;;;;;;;;;;5064295;28;20394;-85
2023/07/15 08:24:04;;;;;;;3.05;2.70;;;;;;;;;;5052268;28;20388;-85
2023/07/15 08:26:30;;;;;;;2.90;2.40;;;;;;;;;;5036731;28;20876;-84
2023/07/15 08:28:58;;;;;;;2.40;2.20;;;;;;;;;;5051840;28;20373;-83
2023/07/15 08:31:24;;;;;;;3.33;2.50;;;;;;;;;;5052523;28;20841;-85
2023/07/15 08:33:50;;;;;;;2.95;2.70;;;;;;;;;;5052032;28;20429;-86
2023/07/15 08:36:16;;;;;;;3.15;2.30;;;;;;;;;;5052171;28;20405;-85
2023/07/15 08:38:42;;;;;;;3.30;2.60;;;;;;;;;;5032781;28;20730;-87
2023/07/15 08:41:08;;;;;;;3.42;2.40;;;;;;;;;;5042260;28;20382;-91
2023/07/15 08:43:34;;;;;;;2.63;2.40;;;;;;;;;;5034901;28;20467;-86
2023/07/15 08:46:01;;;;;;;2.80;2.50;;;;;;;;;;5038714;28;20390;-82
2023/07/15 08:48:28;;;;;;;2.47;2.10;;;;;;;;;;5046703;28;20461;-85
2023/07/15 08:50:58;;;;;;;2.72;2.50;;;;;;;;;;5051834;28;20389;-84
2023/07/15 08:53:28;;;;;;;2.40;2.20;;;;;;;;;;5052019;28;20866;-85
2023/07/15 08:55:56;;;;;;;3.28;2.28;;;;;;;;;;5046106;28;20775;-84
2023/07/15 08:58:22;;;;;;;2.90;2.50;;;;;;;;;;5043786;28;20373;-84
2023/07/15 09:00:49;;;;;;;5.70;2.60;;;;;;;;;;5051559;28;20949;-85
2023/07/15 09:03:15;;;;;;;3.55;2.67;;;;;;;;;;5051701;28;20374;-84
2023/07/15 09:05:41;;;;;;;2.95;2.75;;;;;;;;;;5051870;28;20392;-83
2023/07/15 09:08:10;;;;;;;2.55;2.33;;;;;;;;;;5051315;28;20413;-85
2023/07/15 09:10:36;;;;;;;3.45;2.42;;;;;;;;;;5051758;28;20897;-85
2023/07/15 09:13:02;;;;;;;3.67;2.58;;;;;;;;;;5051698;28;20381;-85
2023/07/15 09:15:28;;;;;;;2.50;2.30;;;;;;;;;;5051800;28;20401;-84
2023/07/15 09:17:56;;;;;;;2.65;2.38;;;;;;;;;;5050850;28;20385;-83
2023/07/15 09:20:22;;;;;;;2.60;2.40;;;;;;;;;;5051483;28;20735;-84
2023/07/15 09:22:52;;;;;;;3.40;2.57;;;;;;;;;;5051663;28;20926;-82
2023/07/15 09:25:22;;;;;;;2.55;2.35;;;;;;;;;;5051090;28;20754;-81
2023/07/15 09:27:49;;;;;;;2.95;2.28;;;;;;;;;;5055209;28;20377;-83
2023/07/15 09:30:15;;;;;;;3.07;2.70;;;;;;;;;;5055148;28;20742;-85
2023/07/15 09:32:41;;;;;;;4.18;3.53;;;;;;;;;;5055269;28;20404;-85
2023/07/15 09:35:07;;;;;;;3.55;2.25;;;;;;;;;;5055047;28;20887;-85
2023/07/15 09:37:34;;;;;;;3.53;2.30;;;;;;;;;;5057604;28;20413;-85
2023/07/15 09:40:01;;;;;;;4.28;2.63;;;;;;;;;;5054698;28;20384;-84
2023/07/15 09:42:27;;;;;;;2.95;2.35;;;;;;;;;;5054962;28;20774;-83
2023/07/15 09:44:53;;;;;;;2.63;2.42;;;;;;;;;;5053706;28;20386;-83
2023/07/15 09:47:24;;;;;;;3.10;2.22;;;;;;;;;;5054778;28;20393;-83
2023/07/15 09:49:50;;;;;;;2.60;2.40;;;;;;;;;;5054884;28;20381;-83
2023/07/15 09:52:16;;;;;;;2.38;2.17;;;;;;;;;;5054093;28;20385;-88
2023/07/15 09:54:43;;;;;;;2.60;2.30;;;;;;;;;;5054230;28;20550;-83
2023/07/15 09:57:15;;;;;;;2.45;2.25;;;;;;;;;;5054631;28;20463;-84
2023/07/15 09:59:48;;;;;;;2.15;2.05;;;;;;;;;;5053774;28;20474;-84
2023/07/15 10:02:34;;;;;;;2.93;2.00;;;;;;;;;;5054226;28;20421;-84
2023/07/15 10:05:03;;;;;;;2.40;2.20;;;;;;;;;;5055010;28;20849;-84
2023/07/15 10:07:29;;;;;;;2.45;2.25;;;;;;;;;;5047105;28;20413;-84
2023/07/15 10:09:55;;;;;;;2.40;2.10;;;;;;;;;;5054695;28;20406;-83
2023/07/15 10:12:21;;;;;;;2.30;2.10;;;;;;;;;;5048269;28;20389;-83
2023/07/15 10:14:48;;;;;;;1.80;1.70;;;;;;;;;;5053670;28;20409;-83
2023/07/15 10:17:17;;;;;;;2.20;2.00;;;;;;;;;;5047128;28;20400;-83
2023/07/15 10:19:44;;;;;;;2.90;2.30;;;;;;;;;;5039891;28;20783;-83
2023/07/15 10:22:11;;;;;;;1.90;1.80;;;;;;;;;;5054730;28;20389;-84
2023/07/15 10:24:40;;;;;;;2.50;1.90;;;;;;;;;;5054288;28;20381;-83
2023/07/15 10:27:10;;;;;;;2.80;2.00;;;;;;;;;;5055180;28;20393;-81
2023/07/15 10:29:40;;;;;;;3.33;2.38;;;;;;;;;;5054131;28;20377;-81
2023/07/15 10:32:14;;;;;;;2.50;2.17;;;;;;;;;;5055244;28;20891;-81
2023/07/15 10:34:48;;;;;;;2.63;2.40;;;;;;;;;;5053963;28;20496;-81
2023/07/15 10:37:15;;;;;;;3.17;2.38;;;;;;;;;;5053086;28;20373;-82
2023/07/15 10:39:42;;;;;;;3.37;2.40;;;;;;;;;;5054394;28;20731;-83
2023/07/15 10:42:12;;;;;;;2.78;2.35;;;;;;;;;;5053932;28;20381;-83
2023/07/15 10:44:41;;;;;;;5.00;4.30;;;;;;;;;;5053845;28;20399;-83
2023/07/15 10:47:08;;;;;;;2.38;2.10;;;;;;;;;;5053604;28;20883;-82
2023/07/15 10:49:35;;;;;;;2.63;2.40;;;;;;;;;;5053936;28;20404;-84
2023/07/15 10:52:02;;;;;;;2.97;2.07;;;;;;;;;;5053759;28;20386;-83
2023/07/15 10:54:30;;;;;;;2.20;2.00;;;;;;;;;;5044986;28;20437;-83
2023/07/15 10:56:56;;;;;;;1.80;1.65;;;;;;;;;;5049275;28;20408;-83
2023/07/15 10:59:33;;;;;;;2.20;1.92;;;;;;;;;;5053677;28;20875;-83
2023/07/15 11:01:59;;;;;;;3.13;2.00;;;;;;;;;;5053591;28;20914;-83
2023/07/15 11:04:26;;;;;;;2.25;2.00;;;;;;;;;;5052499;28;20731;-83
2023/07/15 11:06:52;;;;;;;1.92;1.83;;;;;;;;;;5053345;28;20405;-84
2023/07/15 11:09:19;;;;;;;2.10;1.90;;;;;;;;;;5053357;28;20375;-84
2023/07/15 11:11:45;;;;;;;2.40;2.00;;;;;;;;;;5053412;28;20418;-84
2023/07/15 11:14:23;;;;;;;4.53;2.00;;;;;;;;;;5052197;28;20959;-84
2023/07/15 11:16:50;;;;;;;2.67;1.90;;;;;;;;;;5053288;28;20381;-84
2023/07/15 11:19:16;;;;;;;2.30;2.10;;;;;;;;;;5053206;28;20708;-84
2023/07/15 11:21:44;;;;;;;2.10;1.83;;;;;;;;;;5045154;28;20520;-83
2023/07/15 11:24:13;;;;;;;2.83;1.90;;;;;;;;;;5051468;28;20378;-83
2023/07/15 11:26:43;;;;;;;2.30;1.88;;;;;;;;;;5040323;28;20381;-83
2023/07/15 11:29:19;;;;;;;1.95;1.70;;;;;;;;;;5053169;28;20460;-83
2023/07/15 11:31:50;;;;;;;1.97;1.70;;;;;;;;;;5051656;28;20378;-83
2023/07/15 11:34:17;;;;;;;2.25;2.05;;;;;;;;;;5053134;28;20376;-83
2023/07/15 11:36:43;;;;;;;1.95;1.83;;;;;;;;;;5063672;28;20736;-83
2023/07/15 11:39:10;;;;;;;2.15;1.65;;;;;;;;;;5052918;28;20461;-83
2023/07/15 11:41:36;;;;;;;2.17;1.80;;;;;;;;;;5052929;28;20374;-83
2023/07/15 11:44:11;;;;;;;1.80;1.70;;;;;;;;;;5052434;28;20435;-83
2023/07/15 11:46:41;;;;;;;1.85;1.75;;;;;;;;;;5051915;28;20473;-83
2023/07/15 11:49:08;;;;;;;3.10;2.10;;;;;;;;;;5050855;28;20755;-83
2023/07/15 11:51:38;;;;;;;2.22;2.03;;;;;;;;;;5052396;28;20466;-83
2023/07/15 11:54:11;;;;;;;4.32;1.65;;;;;;;;;;5051125;28;20394;-83
2023/07/15 11:56:47;;;;;;;2.40;1.75;;;;;;;;;;5052298;28;20409;-83
2023/07/15 11:59:32;;;;;;;2.00;1.60;;;;;;;;;;5052359;28;20381;-83
2023/07/15 12:01:58;;;;;;;1.80;1.70;;;;;;;;;;5054512;28;20859;-83
2023/07/15 12:04:27;;;;;;;1.85;1.75;;;;;;;;;;5052401;28;20389;-83
2023/07/15 12:06:53;;;;;;;2.92;1.77;;;;;;;;;;5051888;28;20393;-83
2023/07/15 12:09:21;;;;;;;2.72;1.80;;;;;;;;;;5051783;28;20476;-83
2023/07/15 12:11:47;;;;;;;2.75;1.88;;;;;;;;;;5049820;28;20374;-83
2023/07/15 12:14:15;;;;;;;1.83;1.73;;;;;;;;;;5050662;28;20378;-83
2023/07/15 12:16:42;;;;;;;3.50;2.00;;;;;;;;;;5064762;28;20897;-84
2023/07/15 12:19:12;;;;;;;1.73;1.63;;;;;;;;;;5051876;28;20735;-85
2023/07/15 12:21:38;;;;;;;3.93;2.47;;;;;;;;;;5051948;28;20397;-86
2023/07/15 12:24:04;;;;;;;2.00;1.50;;;;;;;;;;5047551;28;20770;-84
2023/07/15 12:26:30;;;;;;;2.10;1.90;;;;;;;;;;5047852;28;20386;-85
2023/07/15 12:28:57;;;;;;;1.87;1.70;;;;;;;;;;5048110;28;20431;-84
2023/07/15 12:31:23;;;;;;;1.48;1.38;;;;;;;;;;5050799;28;20385;-84
2023/07/15 12:33:49;;;;;;;1.85;1.67;;;;;;;;;;5048055;28;20401;-85
2023/07/15 12:36:16;;;;;;;4.47;1.92;;;;;;;;;;5051901;28;20401;-85
2023/07/15 12:38:42;;;;;;;3.53;2.50;;;;;;;;;;5052042;28;20877;-84
2023/07/15 12:41:09;;;;;;;2.70;2.08;;;;;;;;;;5052042;28;20377;-85
2023/07/15 12:43:35;;;;;;;1.83;1.60;;;;;;;;;;5052138;28;20906;-85
2023/07/15 12:46:02;;;;;;;2.10;1.88;;;;;;;;;;5052017;28;20411;-84
2023/07/15 12:48:28;;;;;;;1.80;1.70;;;;;;;;;;5049996;28;20416;-85
2023/07/15 12:50:54;;;;;;;2.05;1.50;;;;;;;;;;5052059;28;20381;-86
2023/07/15 12:53:21;;;;;;;1.80;1.65;;;;;;;;;;5052420;28;20380;-84
2023/07/15 12:55:47;;;;;;;2.70;1.70;;;;;;;;;;5051888;28;20405;-86
2023/07/15 12:58:13;;;;;;;2.63;1.65;;;;;;;;;;5052282;28;20462;-86
2023/07/15 13:00:40;;;;;;;3.38;1.73;;;;;;;;;;5053338;28;20417;-86
2023/07/15 13:03:09;;;;;;;1.73;1.63;;;;;;;;;;5055633;28;20389;-86
2023/07/15 13:05:36;;;;;;;1.70;1.60;;;;;;;;;;5055747;28;20373;-85
2023/07/15 13:08:02;;;;;;;2.38;1.52;;;;;;;;;;5055550;28;20413;-85
2023/07/15 13:10:29;;;;;;;2.83;1.70;;;;;;;;;;5055688;28;20385;-85
2023/07/15 13:12:55;;;;;;;1.98;1.80;;;;;;;;;;5055546;28;20511;-86
2023/07/15 13:15:21;;;;;;;2.00;1.40;;;;;;;;;;5063282;28;20403;-85
2023/07/15 13:17:47;;;;;;;1.80;1.70;;;;;;;;;;5061541;28;20875;-85
2023/07/15 13:20:14;;;;;;;2.28;1.85;;;;;;;;;;5034470;28;20422;-84
2023/07/15 13:22:40;;;;;;;1.80;1.58;;;;;;;;;;5047459;28;20450;-84
2023/07/15 13:25:06;;;;;;;3.55;1.80;;;;;;;;;;5036238;28;20425;-84
2023/07/15 13:27:33;;;;;;;1.63;1.52;;;;;;;;;;5045448;28;20385;-84
2023/07/15 13:29:59;;;;;;;2.20;1.90;;;;;;;;;;5056082;28;20381;-84
2023/07/15 13:32:25;;;;;;;2.03;1.80;;;;;;;;;;5066716;28;20381;-84
2023/07/15 13:34:51;;;;;;;1.70;1.60;;;;;;;;;;5039661;28;20464;-84
2023/07/15 13:37:17;;;;;;;2.08;1.80;;;;;;;;;;5052568;28;20468;-84
2023/07/15 13:39:45;;;;;;;1.70;1.60;;;;;;;;;;5044256;28;20741;-84
2023/07/15 13:42:13;;;;;;;1.73;1.63;;;;;;;;;;5053033;28;20472;-85
2023/07/15 13:44:39;;;;;;;2.00;1.67;;;;;;;;;;5045292;28;20391;-84
2023/07/15 13:47:06;;;;;;;1.77;1.60;;;;;;;;;;5047203;28;20720;-85
2023/07/15 13:49:32;;;;;;;2.20;1.70;;;;;;;;;;5047639;28;20447;-85
2023/07/15 13:51:58;;;;;;;1.77;1.67;;;;;;;;;;5039726;28;20395;-84
2023/07/15 13:54:25;;;;;;;1.88;1.70;;;;;;;;;;5054946;28;20392;-84
2023/07/15 13:56:51;;;;;;;4.77;1.80;;;;;;;;;;5054721;28;20381;-84
2023/07/15 13:59:17;;;;;;;2.83;1.63;;;;;;;;;;5054752;28;20897;-85
2023/07/15 14:01:44;;;;;;;2.05;1.80;;;;;;;;;;5057396;28;20376;-84
2023/07/15 14:04:10;;;;;;;2.25;2.05;;;;;;;;;;5053228;28;20404;-85
2023/07/15 14:06:36;;;;;;;2.70;1.80;;;;;;;;;;5054288;28;20390;-84
2023/07/15 14:09:03;;;;;;;2.97;1.75;;;;;;;;;;5054454;28;20456;-85
2023/07/15 14:11:29;;;;;;;3.08;1.88;;;;;;;;;;5063925;28;20442;-85
2023/07/15 14:13:57;;;;;;;2.20;1.83;;;;;;;;;;5054215;28;20399;-85
2023/07/15 14:16:23;;;;;;;2.38;1.67;;;;;;;;;;5050502;28;20405;-84
2023/07/15 14:18:49;;;;;;;1.90;1.70;;;;;;;;;;5055113;28;20427;-83
2023/07/15 14:21:15;;;;;;;1.85;1.75;;;;;;;;;;5056709;28;20380;-86
2023/07/15 14:23:41;;;;;;;2.00;1.70;;;;;;;;;;5054396;28;20382;-86
2023/07/15 14:26:07;;;;;;;2.07;1.83;;;;;;;;;;5040656;28;20403;-86
2023/07/15 14:28:33;;;;;;;2.05;1.67;;;;;;;;;;5052732;28;20436;-86
2023/07/15 14:30:59;;;;;;;1.88;1.77;;;;;;;;;;5054308;28;20385;-86
2023/07/15 14:33:25;;;;;;;2.08;1.90;;;;;;;;;;5040254;28;20390;-86
2023/07/15 14:35:51;;;;;;;2.10;1.90;;;;;;;;;;5054064;28;20883;-86
2023/07/15 14:38:17;;;;;;;2.10;1.90;;;;;;;;;;5053985;28;20373;-86
2023/07/15 14:40:43;;;;;;;3.70;2.50;;;;;;;;;;5054320;28;20369;-85
2023/07/15 14:43:10;;;;;;;2.53;2.23;;;;;;;;;;5043178;28;20388;-85